createdAt,value
2022-10-14T00:00:05.397Z,51.88
2022-10-14T00:02:32.113Z,51.03
2022-10-14T00:04:58.860Z,51.10
2022-10-14T00:07:25.635Z,65.10
2022-10-14T00:09:52.587Z,69.20
2022-10-14T00:12:19.358Z,56.63
2022-10-14T00:14:46.105Z,56.58
2022-10-14T00:17:12.864Z,51.92
2022-10-14T00:19:39.580Z,55.85
2022-10-14T00:22:06.319Z,53.03
2022-10-14T00:24:33.064Z,60.90
2022-10-14T00:26:59.807Z,57.20
2022-10-14T00:29:26.641Z,56.70
2022-10-14T00:31:53.763Z,69.53
2022-10-14T00:34:20.603Z,69.93
2022-10-14T00:36:47.356Z,65.53
2022-10-14T00:39:14.077Z,63.08
2022-10-14T00:41:40.969Z,74.93
2022-10-14T00:44:10.937Z,64.25
2022-10-14T00:46:45.186Z,72.18
2022-10-14T00:49:31.760Z,61.58
2022-10-14T00:52:15.010Z,68.18
2022-10-14T00:54:44.231Z,69.45
2022-10-14T00:57:11.419Z,73.57
2022-10-14T00:59:38.180Z,62.72
2022-10-14T01:02:04.937Z,66.22
2022-10-14T01:04:31.656Z,71.15
2022-10-14T01:07:13.958Z,72.38
2022-10-14T01:09:52.274Z,71.15
2022-10-14T01:12:41.777Z,66.90
2022-10-14T01:15:46.280Z,82.70
2022-10-14T01:18:43.971Z,76.40
2022-10-14T01:21:12.853Z,84.85
2022-10-14T01:24:17.406Z,74.15
2022-10-14T01:27:17.456Z,78.10
2022-10-14T01:30:06.262Z,87.80
2022-10-14T01:32:37.591Z,88.05
2022-10-14T01:35:19.436Z,71.70
2022-10-14T01:37:51.035Z,81.30
2022-10-14T01:40:39.432Z,79.57
2022-10-14T01:43:06.216Z,83.30
2022-10-14T01:45:34.549Z,77.07
2022-10-14T01:48:01.663Z,73.38
2022-10-14T01:50:28.531Z,78.22
2022-10-14T01:53:06.969Z,67.43
2022-10-14T01:55:36.689Z,80.53
2022-10-14T01:58:03.545Z,72.75
2022-10-14T02:00:30.319Z,79.80
2022-10-14T02:02:57.060Z,83.38
2022-10-14T02:05:41.332Z,84.47
2022-10-14T02:08:13.978Z,81.47
2022-10-14T02:11:00.980Z,74.22
2022-10-14T02:13:50.733Z,75.03
2022-10-14T02:16:25.231Z,78.75
2022-10-14T02:19:08.532Z,71.72
2022-10-14T02:21:48.103Z,75.53
2022-10-14T02:24:21.817Z,78.15
2022-10-14T02:26:49.118Z,80.47
2022-10-14T02:29:17.653Z,78.43
2022-10-14T02:31:44.358Z,82.20
2022-10-14T02:34:12.151Z,76.72
2022-10-14T02:36:39.049Z,77.82
2022-10-14T02:39:06.492Z,75.63
2022-10-14T02:41:34.430Z,75.18
2022-10-14T02:44:01.459Z,79.32
2022-10-14T02:46:29.169Z,82.97
2022-10-14T02:48:55.949Z,72.80
2022-10-14T02:51:22.785Z,74.57
2022-10-14T02:53:49.557Z,66.45
2022-10-14T02:56:17.075Z,70.53
2022-10-14T02:58:44.001Z,77.00
2022-10-14T03:01:10.763Z,72.47
2022-10-14T03:03:37.482Z,77.55
2022-10-14T03:06:04.386Z,80.75
2022-10-14T03:08:31.135Z,82.75
2022-10-14T03:10:57.866Z,78.00
2022-10-14T03:13:24.667Z,72.93
2022-10-14T03:15:51.492Z,81.25
2022-10-14T03:18:18.357Z,74.03
2022-10-14T03:20:45.354Z,77.65
2022-10-14T03:23:12.607Z,83.07
2022-10-14T03:25:39.411Z,75.25
2022-10-14T03:28:06.234Z,73.07
2022-10-14T03:30:32.996Z,75.25
2022-10-14T03:32:59.792Z,67.95
2022-10-14T03:35:26.613Z,82.68
2022-10-14T03:37:54.809Z,84.30
2022-10-14T03:40:22.391Z,72.57
2022-10-14T03:42:49.554Z,74.10
2022-10-14T03:45:16.417Z,82.75
2022-10-14T03:47:43.154Z,69.90
2022-10-14T03:50:10.189Z,73.88
2022-10-14T03:52:37.117Z,70.70
2022-10-14T03:55:04.092Z,73.65
2022-10-14T03:57:30.828Z,72.40
2022-10-14T03:59:57.546Z,72.15
2022-10-14T04:02:24.580Z,63.03
2022-10-14T04:04:51.475Z,65.00
2022-10-14T04:07:18.204Z,63.17
2022-10-14T04:09:45.058Z,66.15
2022-10-14T04:12:11.991Z,62.53
2022-10-14T04:14:38.829Z,59.30
2022-10-14T04:17:05.577Z,59.63
2022-10-14T04:19:32.352Z,63.70
2022-10-14T04:21:59.164Z,61.92
2022-10-14T04:24:25.901Z,61.20
2022-10-14T04:26:52.794Z,54.72
2022-10-14T04:29:19.760Z,58.60
2022-10-14T04:31:46.532Z,61.72
2022-10-14T04:34:13.455Z,64.18
2022-10-14T04:36:40.276Z,55.72
2022-10-14T04:39:07.037Z,57.78
2022-10-14T04:41:33.809Z,56.70
2022-10-14T04:44:00.553Z,57.78
2022-10-14T04:46:27.334Z,59.58
2022-10-14T04:48:54.132Z,62.65
2022-10-14T04:51:20.974Z,65.13
2022-10-14T04:53:47.728Z,61.92
2022-10-14T04:56:14.492Z,61.83
2022-10-14T04:58:41.405Z,62.63
2022-10-14T05:01:08.138Z,67.90
2022-10-14T05:03:34.942Z,64.40
2022-10-14T05:06:01.773Z,72.38
2022-10-14T05:08:28.562Z,68.53
2022-10-14T05:10:55.418Z,67.57
2022-10-14T05:13:22.239Z,67.65
2022-10-14T05:15:49.051Z,67.00
2022-10-14T05:18:15.814Z,69.47
2022-10-14T05:20:42.523Z,59.38
2022-10-14T05:23:09.303Z,56.50
2022-10-14T05:25:36.028Z,60.28
2022-10-14T05:28:02.801Z,59.50
2022-10-14T05:30:34.414Z,53.85
2022-10-14T05:33:01.604Z,53.40
2022-10-14T05:35:53.683Z,50.67
2022-10-14T05:38:15.144Z,46.28
2022-10-14T05:40:41.942Z,38.60
2022-10-14T05:43:08.680Z,48.92
2022-10-14T05:45:35.409Z,38.25
2022-10-14T05:48:02.202Z,41.67
2022-10-14T05:50:29.040Z,43.92
2022-10-14T05:52:55.918Z,47.05
2022-10-14T05:55:22.661Z,43.42
2022-10-14T05:57:49.487Z,41.72
2022-10-14T06:00:23.315Z,41.70
2022-10-14T06:02:52.441Z,44.97
2022-10-14T06:05:19.183Z,46.30
2022-10-14T06:07:45.909Z,45.78
2022-10-14T06:10:12.754Z,53.38
2022-10-14T06:12:39.467Z,43.53
2022-10-14T06:15:06.724Z,43.42
2022-10-14T06:17:33.509Z,43.70
2022-10-14T06:20:00.307Z,42.92
2022-10-14T06:22:28.121Z,42.85
2022-10-14T06:24:54.899Z,39.20
2022-10-14T06:27:21.653Z,37.60
2022-10-14T06:29:48.420Z,39.67
2022-10-14T06:32:15.222Z,40.20
2022-10-14T06:34:41.994Z,40.85
2022-10-14T06:37:08.906Z,37.90
2022-10-14T06:39:36.043Z,44.40
2022-10-14T06:42:03.116Z,38.17
2022-10-14T06:44:30.004Z,47.13
2022-10-14T06:46:56.820Z,43.65
2022-10-14T06:49:23.876Z,46.35
2022-10-14T06:51:50.715Z,39.63
2022-10-14T06:54:17.591Z,42.83
2022-10-14T06:56:44.391Z,42.40
2022-10-14T06:59:11.162Z,43.97
2022-10-14T07:01:39.143Z,52.67
2022-10-14T07:04:06.192Z,47.83
2022-10-14T07:06:33.264Z,51.15
2022-10-14T07:08:59.996Z,44.85
2022-10-14T07:11:27.069Z,48.60
2022-10-14T07:13:55.027Z,50.22
2022-10-14T07:16:21.890Z,46.97
2022-10-14T07:18:49.127Z,47.22
2022-10-14T07:21:16.084Z,45.13
2022-10-14T07:23:42.986Z,44.67
2022-10-14T07:26:09.933Z,47.10
2022-10-14T07:28:36.946Z,40.13
2022-10-14T07:31:07.058Z,38.20
2022-10-14T07:36:06.604Z,34.00
2022-10-14T07:38:33.532Z,41.10
2022-10-14T07:41:01.793Z,40.45
2022-10-14T07:43:28.765Z,38.13
2022-10-14T07:46:01.723Z,31.33
2022-10-14T07:48:32.818Z,33.05
2022-10-14T07:51:11.776Z,35.00
2022-10-14T07:53:38.674Z,35.78
2022-10-14T07:56:05.823Z,34.33
2022-10-14T07:58:32.859Z,30.70
2022-10-14T08:00:59.699Z,35.35
2022-10-14T08:03:26.594Z,31.50
2022-10-14T08:06:00.091Z,35.63
2022-10-14T08:08:28.602Z,31.50
2022-10-14T08:11:24.947Z,33.20
2022-10-14T08:13:51.927Z,42.97
2022-10-14T08:16:23.611Z,35.80
2022-10-14T08:18:50.787Z,43.78
2022-10-14T08:21:18.760Z,35.88
2022-10-14T08:23:45.807Z,38.83
2022-10-14T08:26:32.621Z,33.03
2022-10-14T08:29:01.458Z,36.20
2022-10-14T08:31:28.448Z,36.78
2022-10-14T08:33:55.455Z,35.20
2022-10-14T08:36:22.452Z,35.30
2022-10-14T08:38:49.412Z,34.05
2022-10-14T08:41:32.272Z,35.15
2022-10-14T08:43:59.246Z,32.42
2022-10-14T08:46:35.973Z,34.25
2022-10-14T08:49:28.990Z,38.38
2022-10-14T08:52:01.598Z,34.38
2022-10-14T08:54:38.672Z,40.03
2022-10-14T08:57:06.481Z,37.08
2022-10-14T08:59:36.634Z,40.63
2022-10-14T09:02:09.480Z,36.70
2022-10-14T09:04:36.557Z,33.20
2022-10-14T09:07:03.748Z,39.28
2022-10-14T09:09:42.047Z,34.80
2022-10-14T09:12:16.819Z,38.35
2022-10-14T09:14:48.812Z,35.63
2022-10-14T09:17:25.718Z,34.67
2022-10-14T09:19:58.772Z,36.70
2022-10-14T09:22:26.292Z,35.03
2022-10-14T09:24:53.134Z,32.95
2022-10-14T09:27:24.242Z,38.17
2022-10-14T09:29:59.178Z,37.45
2022-10-14T09:32:34.139Z,35.47
2022-10-14T09:35:00.983Z,39.03
2022-10-14T09:37:35.050Z,33.90
2022-10-14T09:40:14.015Z,34.00
2022-10-14T09:42:53.976Z,35.92
2022-10-14T09:45:24.935Z,28.50
2022-10-14T09:47:59.843Z,33.00
2022-10-14T09:50:27.983Z,30.45
2022-10-14T09:53:01.631Z,33.75
2022-10-14T09:55:28.561Z,24.25
2022-10-14T09:58:17.113Z,24.17
2022-10-14T10:00:44.158Z,27.60
2022-10-14T10:03:23.729Z,25.70
2022-10-14T10:05:58.686Z,25.70
2022-10-14T10:08:26.627Z,25.27
2022-10-14T10:11:05.549Z,21.70
2022-10-14T10:13:46.569Z,24.15
2022-10-14T10:16:23.839Z,19.10
2022-10-14T10:18:51.140Z,17.95
2022-10-14T10:21:20.568Z,17.25
2022-10-14T10:24:01.066Z,20.08
2022-10-14T10:26:31.692Z,22.73
2022-10-14T10:28:59.701Z,19.70
2022-10-14T10:31:42.109Z,22.42
2022-10-14T10:34:46.160Z,28.07
2022-10-14T10:37:33.573Z,18.88
2022-10-14T10:40:09.320Z,23.45
2022-10-14T10:42:45.901Z,20.20
2022-10-14T10:45:28.626Z,17.95
2022-10-14T10:48:04.524Z,16.25
2022-10-14T10:50:40.672Z,16.50
2022-10-14T10:53:35.152Z,14.18
2022-10-14T10:56:14.098Z,16.65
2022-10-14T10:59:25.318Z,10.68
2022-10-14T11:02:19.609Z,13.43
2022-10-14T11:05:04.098Z,10.77
2022-10-14T11:08:11.267Z,7.57
2022-10-14T11:11:03.336Z,7.25
2022-10-14T11:13:51.563Z,8.20
2022-10-14T11:16:33.749Z,7.82
2022-10-14T11:19:28.841Z,6.63
2022-10-14T11:22:04.651Z,8.50
2022-10-14T11:24:54.640Z,6.50
2022-10-14T11:27:42.557Z,5.25
2022-10-14T11:30:15.937Z,7.05
2022-10-14T11:33:07.364Z,5.53
2022-10-14T11:36:04.662Z,5.05
2022-10-14T11:38:59.871Z,3.50
2022-10-14T11:41:48.298Z,3.20
2022-10-14T11:44:26.690Z,3.00
2022-10-14T11:46:54.832Z,4.38
2022-10-14T11:49:30.468Z,3.25
2022-10-14T11:52:07.835Z,4.22
2022-10-14T11:54:37.498Z,4.13
2022-10-14T11:57:07.040Z,4.43
2022-10-14T11:59:50.689Z,6.68
2022-10-14T12:02:22.069Z,5.32
2022-10-14T12:05:24.123Z,3.70
2022-10-14T12:08:15.014Z,5.30
2022-10-14T12:10:47.212Z,3.45
2022-10-14T12:13:20.139Z,5.75
2022-10-14T12:15:51.433Z,5.30
2022-10-14T12:18:19.780Z,6.22
2022-10-14T12:21:07.578Z,4.45
2022-10-14T12:23:58.829Z,4.25
2022-10-14T12:26:25.785Z,5.03
2022-10-14T12:28:53.966Z,3.80
2022-10-14T12:31:38.261Z,3.85
2022-10-14T12:34:11.172Z,5.00
2022-10-14T12:39:18.168Z,3.63
2022-10-14T12:42:03.760Z,2.63
2022-10-14T12:44:48.702Z,2.88
2022-10-14T12:47:23.962Z,2.70
2022-10-14T12:49:54.354Z,3.28
2022-10-14T12:52:31.424Z,3.00
2022-10-14T12:54:59.169Z,2.83
2022-10-14T12:57:36.209Z,3.33
2022-10-14T13:00:21.464Z,4.25
2022-10-14T13:02:48.855Z,4.50
2022-10-14T13:05:33.864Z,4.60
2022-10-14T13:08:16.127Z,4.22
2022-10-14T13:10:48.500Z,3.15
2022-10-14T13:13:51.691Z,2.25
2022-10-14T13:16:21.158Z,2.60
2022-10-14T13:18:54.882Z,1.73
2022-10-14T13:21:36.728Z,1.70
2022-10-14T13:24:22.251Z,3.30
2022-10-14T13:26:55.320Z,2.95
2022-10-14T13:29:53.112Z,2.67
2022-10-14T13:32:42.872Z,5.63
2022-10-14T13:35:48.323Z,2.50
2022-10-14T13:38:16.661Z,2.67
2022-10-14T13:40:54.140Z,2.95
2022-10-14T13:43:37.781Z,3.75
2022-10-14T13:46:08.722Z,4.53
2022-10-14T13:48:37.731Z,4.65
2022-10-14T13:51:24.396Z,3.35
2022-10-14T13:54:00.251Z,3.22
2022-10-14T13:56:31.350Z,4.32
2022-10-14T13:58:58.319Z,2.78
2022-10-14T14:01:34.441Z,3.05
2022-10-14T14:04:01.311Z,3.17
2022-10-14T14:06:35.764Z,3.28
2022-10-14T14:09:24.768Z,4.07
2022-10-14T14:11:53.614Z,3.75
2022-10-14T14:14:36.281Z,4.68
2022-10-14T14:17:04.978Z,6.13
2022-10-14T14:19:37.216Z,3.75
2022-10-14T14:22:31.772Z,4.68
2022-10-14T14:25:38.196Z,3.88
2022-10-14T14:28:13.984Z,5.00
2022-10-14T14:30:50.558Z,5.22
2022-10-14T14:33:40.525Z,7.90
2022-10-14T14:36:27.475Z,7.60
2022-10-14T14:39:09.138Z,10.52
2022-10-14T14:41:42.186Z,7.68
2022-10-14T14:44:25.714Z,7.13
2022-10-14T14:47:22.575Z,9.30
2022-10-14T14:50:18.329Z,8.25
2022-10-14T14:52:56.181Z,10.57
2022-10-14T14:55:40.129Z,11.55
2022-10-14T14:58:37.165Z,8.60
2022-10-14T15:01:20.086Z,10.93
2022-10-14T15:04:12.430Z,12.65
2022-10-14T15:07:11.064Z,19.08
2022-10-14T15:09:54.273Z,16.77
2022-10-14T15:12:38.068Z,18.63
2022-10-14T15:15:34.161Z,18.30
2022-10-14T15:18:31.336Z,13.73
2022-10-14T15:21:19.018Z,24.02
2022-10-14T15:23:48.773Z,25.25
2022-10-14T15:26:23.243Z,16.65
2022-10-14T15:29:08.424Z,11.70
2022-10-14T15:31:35.792Z,16.50
2022-10-14T15:34:02.858Z,19.08
2022-10-14T15:36:31.465Z,21.17
2022-10-14T15:38:59.215Z,21.70
2022-10-14T15:41:26.247Z,21.38
2022-10-14T15:43:53.247Z,20.13
2022-10-14T15:46:38.395Z,19.17
2022-10-14T15:49:14.266Z,19.35
2022-10-14T15:51:41.333Z,20.83
2022-10-14T15:54:12.520Z,20.05
2022-10-14T15:56:39.528Z,23.20
2022-10-14T15:59:06.540Z,28.83
2022-10-14T16:01:35.441Z,21.42
2022-10-14T16:04:03.930Z,22.58
2022-10-14T16:06:32.765Z,25.25
2022-10-14T16:08:59.759Z,27.65
2022-10-14T16:11:28.262Z,24.00
2022-10-14T16:13:55.376Z,25.02
2022-10-14T16:16:37.196Z,22.08
2022-10-14T16:19:04.961Z,20.10
2022-10-14T16:21:32.123Z,20.27
2022-10-14T16:23:59.343Z,27.27
2022-10-14T16:26:26.412Z,28.38
2022-10-14T16:28:53.706Z,23.30
2022-10-14T16:31:21.583Z,22.30
2022-10-14T16:33:52.116Z,21.75
2022-10-14T16:36:19.201Z,25.17
2022-10-14T16:38:46.207Z,25.88
2022-10-14T16:41:13.317Z,34.38
2022-10-14T16:43:40.361Z,25.10
2022-10-14T16:46:10.431Z,18.45
2022-10-14T16:48:40.276Z,20.85
2022-10-14T16:51:07.301Z,22.77
2022-10-14T16:53:48.778Z,19.42
2022-10-14T16:56:38.605Z,20.15
2022-10-14T16:59:05.953Z,28.52
2022-10-14T17:01:32.995Z,24.90
2022-10-14T17:04:00.041Z,24.67
2022-10-14T17:06:27.126Z,23.50
2022-10-14T17:08:54.074Z,28.25
2022-10-14T17:11:20.821Z,32.50
2022-10-14T17:13:47.578Z,26.85
2022-10-14T17:16:14.336Z,23.42
2022-10-14T17:18:41.395Z,28.75
2022-10-14T17:21:10.684Z,20.25
2022-10-14T17:23:38.648Z,31.13
2022-10-14T17:26:05.721Z,32.47
2022-10-14T17:28:32.930Z,35.50
2022-10-14T17:31:01.070Z,19.90
2022-10-14T17:33:27.837Z,24.20
2022-10-14T17:35:58.058Z,18.95
2022-10-14T17:38:25.611Z,20.48
2022-10-14T17:40:52.516Z,18.88
2022-10-14T17:43:20.480Z,21.90
2022-10-14T17:45:47.318Z,22.80
2022-10-14T17:48:14.210Z,24.23
2022-10-14T17:50:41.599Z,23.15
2022-10-14T17:53:09.378Z,17.38
2022-10-14T17:55:37.053Z,20.80
2022-10-14T17:58:03.874Z,16.58
2022-10-14T18:00:30.655Z,15.93
2022-10-14T18:02:57.607Z,21.08
2022-10-14T18:05:25.307Z,17.60
2022-10-14T18:07:52.243Z,18.13
2022-10-14T18:10:19.743Z,21.48
2022-10-14T18:12:46.794Z,20.52
2022-10-14T18:15:13.600Z,22.17
2022-10-14T18:17:40.528Z,18.83
2022-10-14T18:20:08.774Z,21.55
2022-10-14T18:22:36.038Z,19.63
2022-10-14T18:25:05.281Z,20.02
2022-10-14T18:27:32.867Z,23.02
2022-10-14T18:29:59.796Z,24.10
2022-10-14T18:32:26.769Z,22.33
2022-10-14T18:35:06.227Z,22.75
2022-10-14T18:37:44.968Z,22.42
2022-10-14T18:40:24.428Z,21.52
2022-10-14T18:43:04.495Z,21.10
2022-10-14T18:45:49.021Z,22.77
2022-10-14T18:48:28.272Z,26.13
2022-10-14T18:51:10.293Z,23.40
2022-10-14T18:53:52.371Z,22.20
2022-10-14T18:56:32.014Z,21.67
2022-10-14T18:59:13.837Z,23.17
2022-10-14T19:01:52.329Z,20.88
2022-10-14T19:04:28.632Z,21.50
2022-10-14T19:07:12.281Z,22.50
2022-10-14T19:09:57.079Z,19.38
2022-10-14T19:12:46.041Z,25.02
2022-10-14T19:15:19.367Z,20.58
2022-10-14T19:17:57.273Z,26.48
2022-10-14T19:20:39.281Z,26.77
2022-10-14T19:23:11.454Z,24.80
2022-10-14T19:25:51.348Z,27.48
2022-10-14T19:28:30.357Z,25.80
2022-10-14T19:31:17.305Z,26.33
2022-10-14T19:33:53.736Z,30.00
2022-10-14T19:36:33.384Z,27.48
2022-10-14T19:39:13.665Z,26.40
2022-10-14T19:41:57.427Z,27.77
2022-10-14T19:44:36.223Z,30.90
2022-10-14T19:47:18.002Z,32.05
2022-10-14T19:49:57.170Z,29.15
2022-10-14T19:52:37.387Z,36.38
2022-10-14T19:55:16.186Z,37.50
2022-10-14T19:57:57.510Z,31.88
2022-10-14T20:00:36.714Z,33.78
2022-10-14T20:03:16.233Z,34.90
2022-10-14T20:05:55.448Z,34.92
2022-10-14T20:08:34.222Z,40.08
2022-10-14T20:11:16.457Z,35.58
2022-10-14T20:13:59.145Z,26.63
2022-10-14T20:16:38.188Z,34.50
2022-10-14T20:19:14.240Z,31.38
2022-10-14T20:21:54.446Z,32.65
2022-10-14T20:24:34.182Z,33.40
2022-10-14T20:27:12.302Z,42.63
2022-10-14T20:29:51.332Z,35.42
2022-10-14T20:32:30.385Z,35.72
2022-10-14T20:35:16.419Z,30.23
2022-10-14T20:37:44.188Z,37.38
2022-10-14T20:40:11.620Z,34.95
2022-10-14T20:42:38.431Z,42.92
2022-10-14T20:45:05.747Z,40.47
2022-10-14T20:47:32.486Z,39.00
2022-10-14T20:49:59.343Z,40.58
2022-10-14T20:52:26.245Z,37.53
2022-10-14T20:54:53.032Z,34.90
2022-10-14T20:57:20.004Z,37.72
2022-10-14T20:59:48.398Z,42.67
2022-10-14T21:02:16.457Z,39.85
2022-10-14T21:04:47.054Z,41.42
2022-10-14T21:07:25.277Z,38.47
2022-10-14T21:10:05.618Z,36.33
2022-10-14T21:12:49.901Z,39.28
2022-10-14T21:15:30.179Z,48.78
2022-10-14T21:18:08.908Z,42.85
2022-10-14T21:20:54.165Z,45.13
2022-10-14T21:23:34.438Z,42.10
2022-10-14T21:26:13.521Z,42.20
2022-10-14T21:28:53.465Z,43.08
2022-10-14T21:31:34.129Z,44.67
2022-10-14T21:34:18.483Z,44.47
2022-10-14T21:37:01.722Z,43.95
2022-10-14T21:39:40.367Z,50.10
2022-10-14T21:42:19.330Z,43.40
2022-10-14T21:44:57.662Z,44.33
2022-10-14T21:47:35.321Z,46.97
2022-10-14T21:50:15.421Z,46.55
2022-10-14T21:52:52.233Z,43.50
2022-10-14T21:55:37.177Z,44.75
2022-10-14T21:58:15.942Z,47.90
2022-10-14T22:00:57.184Z,45.53
2022-10-14T22:03:39.011Z,49.10
2022-10-14T22:06:22.267Z,45.03
2022-10-14T22:09:01.383Z,45.92
